Time;durP1;ratioP1;P1;durP2;ratioP2;P2;SDS_P1;SDS_P2;PMS_P1;PMS_P2;Temp;Humidity;BMP_temperature;BMP_pressure;BME280_temperature;BME280_humidity;BME280_pressure;Samples;Min_cycle;Max_cycle;Signal;HPM_P1;HPM_P2
2022/06/26 00:00:45;;;;;;;6.57;2.70;;;;;;;-146.19;100.00;58918.88;5049640;28;20443;-47
2022/06/26 00:03:13;;;;;;;5.47;2.88;;;;;;;-146.19;100.00;58918.88;5039230;28;20065;-49
2022/06/26 00:05:42;;;;;;;5.25;3.00;;;;;;;-146.19;100.00;58918.88;5037072;28;20463;-54
2022/06/26 00:08:10;;;;;;;5.55;3.15;;;;;;;-146.19;100.00;58918.88;5045800;28;20456;-54
2022/06/26 00:10:39;;;;;;;7.32;4.05;;;;;;;-146.19;100.00;58918.88;5044040;28;20071;-48
2022/06/26 00:13:08;;;;;;;7.07;5.03;;;;;;;-146.19;100.00;58918.88;5048639;28;20557;-53
2022/06/26 00:15:37;;;;;;;9.05;4.63;;;;;;;-146.19;100.00;58918.88;5047999;28;20562;-49
2022/06/26 00:18:05;;;;;;;9.35;4.28;;;;;;;-146.19;100.00;58918.88;5049945;28;20067;-48
2022/06/26 00:20:34;;;;;;;5.78;3.75;;;;;;;-146.19;100.00;58918.88;5045936;28;20072;-47
2022/06/26 00:23:02;;;;;;;4.80;3.17;;;;;;;-146.19;100.00;58918.88;5045279;28;20061;-49
2022/06/26 00:25:31;;;;;;;4.18;2.70;;;;;;;-146.19;100.00;58918.88;5042875;28;20080;-48
2022/06/26 00:28:00;;;;;;;4.40;2.47;;;;;;;-146.19;100.00;58918.88;5049388;28;20629;-50
2022/06/26 00:30:29;;;;;;;4.80;2.45;;;;;;;-146.19;100.00;58918.88;5046000;28;20064;-51
2022/06/26 00:32:58;;;;;;;4.70;2.10;;;;;;;-146.19;100.00;58918.88;5049460;28;20080;-52
2022/06/26 00:35:26;;;;;;;4.82;2.22;;;;;;;-146.19;100.00;58918.88;5045644;28;20069;-51
2022/06/26 00:37:54;;;;;;;5.63;2.45;;;;;;;-146.19;100.00;58918.88;5044593;28;20088;-51
2022/06/26 00:40:23;;;;;;;2.42;2.22;;;;;;;-146.19;100.00;58918.88;5044725;28;20483;-49
2022/06/26 00:42:51;;;;;;;3.30;2.20;;;;;;;-146.19;100.00;58918.88;5046776;28;20451;-46
2022/06/26 00:45:19;;;;;;;5.03;1.98;;;;;;;-146.19;100.00;58918.88;5044821;28;20689;-46
2022/06/26 00:47:49;;;;;;;2.60;2.20;;;;;;;-146.19;100.00;58918.88;5045341;28;20542;-45
2022/06/26 00:50:17;;;;;;;3.00;2.53;;;;;;;-146.19;100.00;58918.88;5044515;28;20075;-49
2022/06/26 00:52:46;;;;;;;3.55;2.25;;;;;;;-146.19;100.00;58918.88;5045277;28;20561;-45
2022/06/26 00:55:15;;;;;;;2.47;2.28;;;;;;;-146.19;100.00;58918.88;5045994;28;20080;-51
2022/06/26 00:57:43;;;;;;;4.18;2.58;;;;;;;-146.19;100.00;58918.88;5045545;28;20073;-54
2022/06/26 01:00:13;;;;;;;2.63;2.28;;;;;;;-146.19;100.00;58918.88;5045666;28;20080;-54
2022/06/26 01:02:41;;;;;;;6.13;2.60;;;;;;;-146.19;100.00;58918.88;5045463;28;20552;-45
2022/06/26 01:05:12;;;;;;;5.25;2.58;;;;;;;-146.19;100.00;58918.88;5047338;28;20068;-51
2022/06/26 01:07:40;;;;;;;3.10;2.75;;;;;;;-146.19;100.00;58918.88;5046857;28;20100;-48
2022/06/26 01:10:09;;;;;;;3.88;2.88;;;;;;;-146.19;100.00;58918.88;5044024;28;20083;-47
2022/06/26 01:12:38;;;;;;;4.28;3.40;;;;;;;-146.19;100.00;58918.88;5045431;28;20156;-48
2022/06/26 01:15:08;;;;;;;5.05;3.45;;;;;;;-146.19;100.00;58918.88;5044900;28;20072;-53
2022/06/26 01:17:37;;;;;;;;;;;;;;;-146.19;100.00;58918.88;5046962;28;20084;-47
2022/06/26 01:20:07;;;;;;;7.20;3.00;;;;;;;-146.19;100.00;58918.88;5045280;28;19960;-55
2022/06/26 01:22:37;;;;;;;5.27;3.07;;;;;;;-146.19;100.00;58918.88;5045082;28;20574;-46
2022/06/26 01:25:06;;;;;;;5.38;2.53;;;;;;;-146.19;100.00;58918.88;5045501;28;20080;-53
2022/06/26 01:27:41;;;;;;;6.63;2.83;;;;;;;-146.19;100.00;58918.88;5049240;28;20534;-48
2022/06/26 01:30:10;;;;;;;4.68;2.60;;;;;;;-146.19;100.00;58918.88;5044525;28;20160;-54
2022/06/26 01:32:38;;;;;;;5.40;2.88;;;;;;;-146.19;100.00;58918.88;5043896;28;20099;-46
2022/06/26 01:35:07;;;;;;;4.03;2.90;;;;;;;-146.19;100.00;58918.88;5043537;28;20072;-55
2022/06/26 01:37:37;;;;;;;7.43;3.10;;;;;;;-146.19;100.00;58918.88;5046301;28;20072;-51
2022/06/26 01:40:08;;;;;;;4.30;2.70;;;;;;;-146.19;100.00;58918.88;5045943;28;20077;-50
2022/06/26 01:42:36;;;;;;;5.45;3.00;;;;;;;-146.19;100.00;58918.88;5042759;28;20091;-51
2022/06/26 01:45:05;;;;;;;5.47;3.00;;;;;;;-146.19;100.00;58918.88;5044839;28;20073;-55
2022/06/26 01:47:34;;;;;;;2.95;2.67;;;;;;;-146.19;100.00;58918.88;5045793;28;20103;-48
2022/06/26 01:50:03;;;;;;;6.25;2.53;;;;;;;-146.19;100.00;58918.88;5046932;28;20071;-49
2022/06/26 01:52:31;;;;;;;3.53;2.38;;;;;;;-146.19;100.00;58918.88;5044113;28;20535;-51
2022/06/26 01:55:01;;;;;;;6.07;2.92;;;;;;;-146.19;100.00;58918.88;5050155;28;20068;-45
2022/06/26 01:57:29;;;;;;;3.27;2.73;;;;;;;-146.19;100.00;58918.88;5043698;28;20072;-49
2022/06/26 01:59:58;;;;;;;6.13;2.70;;;;;;;-146.19;100.00;58918.88;5043555;28;20494;-45
2022/06/26 02:02:27;;;;;;;4.32;2.78;;;;;;;-146.19;100.00;58918.88;5044571;28;20206;-49
2022/06/26 02:04:55;;;;;;;6.60;2.47;;;;;;;-146.19;100.00;58918.88;5046979;28;20154;-51
2022/06/26 02:07:23;;;;;;;4.45;2.85;;;;;;;-146.19;100.00;58918.88;5044639;28;20531;-46
2022/06/26 02:15:25;;;;;;;6.15;3.53;;;;;;;-146.19;100.00;58918.88;5042493;28;20781;-47
2022/06/26 02:17:55;;;;;;;4.20;3.10;;;;;;;-146.19;100.00;58918.88;5047492;28;20491;-52
2022/06/26 02:20:23;;;;;;;4.53;3.10;;;;;;;-146.19;100.00;58918.88;5044075;28;20056;-57
2022/06/26 02:22:52;;;;;;;7.05;2.60;;;;;;;-146.19;100.00;58918.88;5042856;28;20087;-49
2022/06/26 02:25:20;;;;;;;5.88;2.70;;;;;;;-146.19;100.00;58918.88;5042376;28;20085;-54
2022/06/26 02:27:50;;;;;;;3.22;2.75;;;;;;;-146.19;100.00;58918.88;5044211;28;20068;-49
2022/06/26 02:30:19;;;;;;;3.80;2.45;;;;;;;-146.19;100.00;58918.88;5043710;28;20071;-55
2022/06/26 02:32:47;;;;;;;3.75;2.40;;;;;;;-146.19;100.00;58918.88;5041947;28;20072;-50
2022/06/26 02:35:16;;;;;;;3.90;2.50;;;;;;;-146.19;100.00;58918.88;5043674;28;20068;-48
2022/06/26 02:37:44;;;;;;;4.05;2.85;;;;;;;-146.19;100.00;58918.88;5041668;28;20080;-48
2022/06/26 02:40:13;;;;;;;6.35;3.15;;;;;;;-146.19;100.00;58918.88;5046035;28;20174;-47
2022/06/26 02:42:41;;;;;;;4.32;3.33;;;;;;;-146.19;100.00;58918.88;5043918;28;20052;-46
2022/06/26 02:45:11;;;;;;;5.30;3.83;;;;;;;-146.19;100.00;58918.88;5044267;28;20068;-49
2022/06/26 02:47:40;;;;;;;10.30;3.85;;;;;;;-146.19;100.00;58918.88;5043035;28;20551;-54
2022/06/26 02:50:09;;;;;;;6.53;3.80;;;;;;;-146.19;100.00;58918.88;5042524;28;20064;-49
2022/06/26 02:52:38;;;;;;;6.63;4.23;;;;;;;-146.19;100.00;58918.88;5043868;28;20079;-52
2022/06/26 02:55:09;;;;;;;5.85;4.25;;;;;;;-146.19;100.00;58918.88;5046772;28;20041;-54
2022/06/26 02:57:37;;;;;;;5.93;4.03;;;;;;;-146.19;100.00;58918.88;5043502;28;20069;-47
2022/06/26 03:00:09;;;;;;;6.13;4.82;;;;;;;-146.19;100.00;58918.88;5042235;28;21662;-53
2022/06/26 03:02:38;;;;;;;10.77;5.13;;;;;;;-146.19;100.00;58918.88;5043399;28;20063;-49
2022/06/26 03:05:08;;;;;;;6.65;5.15;;;;;;;-146.19;100.00;58918.88;5044593;28;20479;-52
2022/06/26 03:07:46;;;;;;;8.02;4.35;;;;;;;-146.19;100.00;58918.88;5043812;28;20554;-48
2022/06/26 03:10:14;;;;;;;7.15;4.25;;;;;;;-146.19;100.00;58918.88;5042274;28;20522;-53
2022/06/26 03:12:44;;;;;;;5.95;5.13;;;;;;;-146.19;100.00;58918.88;5043660;28;20060;-49
2022/06/26 03:15:13;;;;;;;14.80;4.45;;;;;;;-146.19;100.00;58918.88;5041632;28;20535;-49
2022/06/26 03:17:42;;;;;;;4.30;3.90;;;;;;;-146.19;100.00;58918.88;5043990;28;20068;-54
2022/06/26 03:20:12;;;;;;;7.07;3.70;;;;;;;-146.19;100.00;58918.88;5043099;28;20064;-48
2022/06/26 03:22:40;;;;;;;5.97;3.13;;;;;;;-146.19;100.00;58918.88;5048912;28;20081;-48
2022/06/26 03:25:09;;;;;;;5.07;3.40;;;;;;;-146.19;100.00;58918.88;5048037;28;20506;-48
2022/06/26 03:27:38;;;;;;;9.10;3.60;;;;;;;-146.19;100.00;58918.88;5041834;28;20599;-53
2022/06/26 03:30:09;;;;;;;3.90;3.50;;;;;;;-146.19;100.00;58918.88;5043096;28;20420;-47
2022/06/26 03:32:37;;;;;;;;;;;;;;;-146.19;100.00;58918.88;5043482;28;20440;-46
2022/06/26 03:35:08;;;;;;;6.68;3.53;;;;;;;-146.19;100.00;58918.88;5040159;28;19971;-49
2022/06/26 03:37:36;;;;;;;6.45;3.85;;;;;;;-146.19;100.00;58918.88;5041148;28;20076;-51
2022/06/26 03:40:06;;;;;;;5.35;3.80;;;;;;;-146.19;100.00;58918.88;5046806;28;20099;-46
2022/06/26 03:42:35;;;;;;;4.63;3.65;;;;;;;-146.19;100.00;58918.88;5041815;28;20402;-50
2022/06/26 03:45:04;;;;;;;11.57;4.13;;;;;;;-146.19;100.00;58918.88;5044807;28;20071;-55
2022/06/26 03:47:33;;;;;;;9.05;3.97;;;;;;;-146.19;100.00;58918.88;5042383;28;20447;-51
2022/06/26 03:50:03;;;;;;;9.73;4.50;;;;;;;-146.19;100.00;58918.88;5048734;28;20068;-55
2022/06/26 03:52:33;;;;;;;5.43;3.80;;;;;;;-146.19;100.00;58918.88;5049302;28;20468;-46
2022/06/26 03:55:01;;;;;;;4.03;3.33;;;;;;;-146.19;100.00;58918.88;5026361;28;20510;-51
2022/06/26 03:57:31;;;;;;;5.60;3.50;;;;;;;-146.19;100.00;58918.88;5026218;28;20068;-51
2022/06/26 04:00:00;;;;;;;6.43;4.38;;;;;;;-146.19;100.00;58918.88;5025965;28;20464;-52
2022/06/26 04:02:28;;;;;;;7.90;4.10;;;;;;;-146.19;100.00;58918.88;5025383;28;20455;-51
2022/06/26 04:04:56;;;;;;;4.85;4.35;;;;;;;-146.19;100.00;58918.88;5032553;28;20060;-51
2022/06/26 04:07:25;;;;;;;9.32;4.57;;;;;;;-146.19;100.00;58918.88;5030373;28;20073;-51
2022/06/26 04:09:54;;;;;;;4.07;3.67;;;;;;;-146.19;100.00;58918.88;5033064;28;20080;-49
2022/06/26 04:12:23;;;;;;;5.32;4.22;;;;;;;-146.19;100.00;58918.88;5026017;28;20065;-53
2022/06/26 04:14:51;;;;;;;6.25;3.80;;;;;;;-146.19;100.00;58918.88;5027324;28;20057;-49
2022/06/26 04:17:19;;;;;;;4.88;3.90;;;;;;;-146.19;100.00;58918.88;5031988;28;20519;-55
2022/06/26 04:19:50;;;;;;;3.55;2.95;;;;;;;-146.19;100.00;58918.88;5028274;28;20112;-52
2022/06/26 04:22:18;;;;;;;5.00;3.47;;;;;;;-146.19;100.00;58918.88;5024910;28;20073;-46
2022/06/26 04:24:47;;;;;;;4.93;3.58;;;;;;;-146.19;100.00;58918.88;5027536;28;20747;-48
2022/06/26 04:27:17;;;;;;;5.93;3.53;;;;;;;-146.19;100.00;58918.88;5028929;28;20088;-54
2022/06/26 04:29:45;;;;;;;7.18;4.40;;;;;;;-146.19;100.00;58918.88;5028405;28;20081;-49
2022/06/26 04:32:14;;;;;;;6.53;4.80;;;;;;;-146.19;100.00;58918.88;5023110;28;20456;-53
2022/06/26 04:34:42;;;;;;;6.93;4.30;;;;;;;-146.19;100.00;58918.88;5023185;28;20481;-52
2022/06/26 04:37:10;;;;;;;4.85;3.47;;;;;;;-146.19;100.00;58918.88;5029405;28;20092;-53
2022/06/26 04:39:39;;;;;;;4.38;2.88;;;;;;;-146.19;100.00;58918.88;5024779;28;20071;-49
2022/06/26 04:42:07;;;;;;;5.70;3.25;;;;;;;-146.19;100.00;58918.88;5030291;28;20570;-50
2022/06/26 04:44:37;;;;;;;6.60;3.20;;;;;;;-146.19;100.00;58918.88;5027071;28;20476;-46
2022/06/26 04:47:05;;;;;;;5.10;3.67;;;;;;;-146.19;100.00;58918.88;5027830;28;20073;-50
2022/06/26 04:49:33;;;;;;;3.85;3.33;;;;;;;-146.19;100.00;58918.88;5026902;28;20472;-46
2022/06/26 04:52:02;;;;;;;6.93;3.78;;;;;;;-146.19;100.00;58918.88;5023749;28;20467;-51
2022/06/26 04:54:30;;;;;;;5.88;4.70;;;;;;;-146.19;100.00;58918.88;5026101;28;20057;-55
2022/06/26 04:56:58;;;;;;;6.65;4.60;;;;;;;-146.19;100.00;58918.88;5024630;28;20088;-48
2022/06/26 04:59:27;;;;;;;5.43;4.15;;;;;;;-146.19;100.00;58918.88;5021505;28;20068;-46
2022/06/26 05:01:56;;;;;;;4.80;4.40;;;;;;;-146.19;100.00;58918.88;5042713;28;22418;-54
2022/06/26 05:04:25;;;;;;;6.28;4.50;;;;;;;-146.19;100.00;58918.88;5027348;28;20096;-49
2022/06/26 05:06:53;;;;;;;3.78;3.40;;;;;;;-146.19;100.00;58918.88;5031959;28;20457;-53
2022/06/26 05:09:22;;;;;;;5.82;3.47;;;;;;;-146.19;100.00;58918.88;5025036;28;20065;-57
2022/06/26 05:11:51;;;;;;;3.92;3.47;;;;;;;-146.19;100.00;58918.88;5035990;28;20110;-50
2022/06/26 05:14:20;;;;;;;4.75;3.28;;;;;;;-146.19;100.00;58918.88;5038630;28;20060;-55
2022/06/26 05:16:48;;;;;;;4.35;3.67;;;;;;;-146.19;100.00;58918.88;5026085;28;20077;-54
2022/06/26 05:19:18;;;;;;;7.00;4.70;;;;;;;-146.19;100.00;58918.88;5027222;28;20075;-55
2022/06/26 05:21:47;;;;;;;4.40;4.00;;;;;;;-146.19;100.00;58918.88;5025142;28;21115;-50
2022/06/26 05:24:15;;;;;;;4.35;3.90;;;;;;;-146.19;100.00;58918.88;5024249;28;20068;-48
2022/06/26 05:26:43;;;;;;;6.07;4.68;;;;;;;-146.19;100.00;58918.88;5026199;28;20057;-44
2022/06/26 05:29:12;;;;;;;3.95;3.22;;;;;;;-146.19;100.00;58918.88;5024229;28;20069;-44
2022/06/26 05:31:40;;;;;;;5.35;3.58;;;;;;;-146.19;100.00;58918.88;5024426;28;20096;-51
2022/06/26 05:34:09;;;;;;;3.92;3.45;;;;;;;-146.19;100.00;58918.88;5026674;28;20084;-45
2022/06/26 05:36:39;;;;;;;4.97;3.60;;;;;;;-146.19;100.00;58918.88;5022646;28;20065;-47
2022/06/26 05:39:07;;;;;;;4.25;3.85;;;;;;;-146.19;100.00;58918.88;5025404;28;20068;-43
2022/06/26 05:41:35;;;;;;;5.53;4.22;;;;;;;-146.19;100.00;58918.88;5024496;28;20551;-52
2022/06/26 05:44:04;;;;;;;6.05;4.53;;;;;;;-146.19;100.00;58918.88;5025873;28;20065;-49
2022/06/26 05:46:33;;;;;;;5.38;4.40;;;;;;;-146.19;100.00;58918.88;5025504;28;20081;-46
2022/06/26 05:49:01;;;;;;;4.82;4.10;;;;;;;-146.19;100.00;58918.88;5024043;28;20359;-46
2022/06/26 05:51:30;;;;;;;6.90;3.90;;;;;;;-146.19;100.00;58918.88;5024200;28;20304;-48
2022/06/26 05:53:59;;;;;;;5.78;3.78;;;;;;;-146.19;100.00;58918.88;5021879;28;20605;-43
2022/06/26 05:56:49;;;;;;;4.38;3.97;;;;;;;-146.19;100.00;58918.88;5023895;28;20069;-50
2022/06/26 05:59:17;;;;;;;5.13;3.60;;;;;;;-146.19;100.00;58918.88;5016470;28;20072;-48
2022/06/26 06:01:46;;;;;;;5.15;3.63;;;;;;;-146.19;100.00;58918.88;5029825;28;20464;-47
2022/06/26 06:04:14;;;;;;;5.63;3.60;;;;;;;-146.19;100.00;58918.88;5024574;28;20486;-45
2022/06/26 06:06:43;;;;;;;4.18;3.25;;;;;;;-146.19;100.00;58918.88;5026344;28;20076;-54
2022/06/26 06:09:12;;;;;;;3.75;2.92;;;;;;;-146.19;100.00;58918.88;5024403;28;20071;-52
2022/06/26 06:11:41;;;;;;;;;;;;;;;-146.19;100.00;58918.88;5021908;28;20081;-47
2022/06/26 06:14:09;;;;;;;4.70;2.92;;;;;;;-146.19;100.00;58918.88;5022666;28;19952;-42
2022/06/26 06:16:37;;;;;;;5.30;3.10;;;;;;;-146.19;100.00;58918.88;5026446;28;20073;-51
2022/06/26 06:19:06;;;;;;;3.40;3.10;;;;;;;-146.19;100.00;58918.88;5024685;28;20508;-50
2022/06/26 06:21:34;;;;;;;5.75;3.20;;;;;;;-146.19;100.00;58918.88;5027935;28;20131;-50
2022/06/26 06:24:03;;;;;;;3.17;2.78;;;;;;;-146.19;100.00;58918.88;5023120;28;20056;-47
2022/06/26 06:26:32;;;;;;;3.78;2.75;;;;;;;-146.19;100.00;58918.88;5023058;28;20064;-51
2022/06/26 06:29:01;;;;;;;4.03;2.97;;;;;;;-146.19;100.00;58918.88;5030142;28;20069;-56
2022/06/26 06:31:29;;;;;;;4.07;2.78;;;;;;;-146.19;100.00;58918.88;5025341;28;20081;-44
2022/06/26 06:33:58;;;;;;;4.57;2.90;;;;;;;-146.19;100.00;58918.88;5023311;28;20080;-45
2022/06/26 06:36:26;;;;;;;3.22;2.70;;;;;;;-146.19;100.00;58918.88;5032150;28;20457;-44
2022/06/26 06:38:55;;;;;;;3.63;2.70;;;;;;;-146.19;100.00;58918.88;5022407;28;20065;-49
2022/06/26 06:41:23;;;;;;;4.70;2.40;;;;;;;-146.19;100.00;58918.88;5025869;28;20088;-50
2022/06/26 06:43:53;;;;;;;3.65;2.50;;;;;;;-146.19;100.00;58918.88;5023580;28;20084;-50
2022/06/26 06:46:21;;;;;;;3.72;2.55;;;;;;;-146.19;100.00;58918.88;5022799;28;20917;-44
2022/06/26 06:48:49;;;;;;;3.25;2.38;;;;;;;-146.19;100.00;58918.88;5028420;28;20076;-51
2022/06/26 06:51:18;;;;;;;4.00;2.60;;;;;;;-146.19;100.00;58918.88;5026118;28;20656;-46
2022/06/26 06:53:47;;;;;;;4.97;2.53;;;;;;;-146.19;100.00;58918.88;5026599;28;20065;-45
2022/06/26 06:56:15;;;;;;;3.67;2.58;;;;;;;-146.19;100.00;58918.88;5025916;28;20196;-52
2022/06/26 06:58:44;;;;;;;3.00;2.40;;;;;;;-146.19;100.00;58918.88;5025290;28;20081;-48
2022/06/26 07:01:13;;;;;;;3.22;2.30;;;;;;;-146.19;100.00;58918.88;5032160;28;20471;-49
2022/06/26 07:03:42;;;;;;;3.58;2.22;;;;;;;-146.19;100.00;58918.88;5028972;28;20081;-46
2022/06/26 07:06:10;;;;;;;2.53;2.03;;;;;;;-146.19;100.00;58918.88;5022838;28;20072;-50
2022/06/26 07:08:39;;;;;;;2.15;1.95;;;;;;;-146.19;100.00;58918.88;5025810;28;20072;-49
2022/06/26 07:11:07;;;;;;;2.53;2.00;;;;;;;-146.19;100.00;58918.88;5025652;28;20061;-47
2022/06/26 07:13:36;;;;;;;3.95;2.20;;;;;;;-146.19;100.00;58918.88;5024810;28;20056;-47
2022/06/26 07:16:05;;;;;;;4.15;2.28;;;;;;;-146.19;100.00;58918.88;5022291;28;20049;-50
2022/06/26 07:18:35;;;;;;;4.03;2.33;;;;;;;-146.19;100.00;58918.88;5023103;28;20065;-46
2022/06/26 07:21:03;;;;;;;4.45;2.50;;;;;;;-146.19;100.00;58918.88;5022437;28;20103;-53
2022/06/26 07:23:32;;;;;;;3.17;2.35;;;;;;;-146.19;100.00;58918.88;5024778;28;20076;-52
2022/06/26 07:26:00;;;;;;;2.58;2.25;;;;;;;-146.19;100.00;58918.88;5028949;28;20535;-50
2022/06/26 07:28:29;;;;;;;4.82;2.65;;;;;;;-146.19;100.00;58918.88;5034605;28;20088;-46
2022/06/26 07:30:57;;;;;;;2.50;2.30;;;;;;;-146.19;100.00;58918.88;5031725;28;20069;-46
2022/06/26 07:36:13;;;;;;;2.75;2.40;;;;;;;-146.19;100.00;58918.88;5028656;28;20064;-48
2022/06/26 07:38:41;;;;;;;4.57;2.63;;;;;;;-146.19;100.00;58918.88;5028151;28;20077;-50
2022/06/26 07:41:10;;;;;;;2.30;2.10;;;;;;;-146.19;100.00;58918.88;5029837;28;20061;-51
2022/06/26 07:43:38;;;;;;;3.30;2.00;;;;;;;-146.19;100.00;58918.88;5031646;28;20108;-49
2022/06/26 07:46:06;;;;;;;5.05;2.22;;;;;;;-146.19;100.00;58918.88;5030419;28;20072;-51
2022/06/26 07:48:35;;;;;;;3.10;2.40;;;;;;;-146.19;100.00;58918.88;5031188;28;20083;-50
2022/06/26 07:51:03;;;;;;;3.38;2.47;;;;;;;-146.19;100.00;58918.88;5026277;28;20512;-48
2022/06/26 07:53:33;;;;;;;3.20;2.50;;;;;;;-146.19;100.00;58918.88;5029870;28;20072;-46
2022/06/26 07:56:02;;;;;;;2.95;2.65;;;;;;;-146.19;100.00;58918.88;5032778;28;20057;-46
2022/06/26 07:58:30;;;;;;;4.13;2.67;;;;;;;-146.19;100.00;58918.88;5058858;28;20460;-47
2022/06/26 08:00:58;;;;;;;3.05;2.80;;;;;;;-146.19;100.00;58918.88;5032646;28;20127;-46
2022/06/26 08:03:27;;;;;;;3.20;2.90;;;;;;;-146.19;100.00;58918.88;5027743;28;20065;-46
2022/06/26 08:05:55;;;;;;;4.88;2.80;;;;;;;-146.19;100.00;58918.88;5027954;28;20452;-51
2022/06/26 08:08:23;;;;;;;2.85;2.60;;;;;;;-146.19;100.00;58918.88;5028693;28;20072;-46
2022/06/26 08:10:53;;;;;;;3.50;2.83;;;;;;;-146.19;100.00;58918.88;5031407;28;20462;-51
2022/06/26 08:13:22;;;;;;;3.92;2.88;;;;;;;-146.19;100.00;58918.88;5033106;28;20367;-46
2022/06/26 08:15:56;;;;;;;3.58;2.70;;;;;;;-146.19;100.00;58918.88;5027306;28;20065;-53
2022/06/26 08:18:25;;;;;;;2.45;2.10;;;;;;;-146.19;100.00;58918.88;5060112;28;20183;-47
2022/06/26 08:20:53;;;;;;;3.22;2.40;;;;;;;-146.19;100.00;58918.88;5029189;28;20069;-46
2022/06/26 08:23:22;;;;;;;4.57;2.97;;;;;;;-146.19;100.00;58918.88;5028682;28;20069;-46
2022/06/26 08:25:50;;;;;;;3.35;2.78;;;;;;;-146.19;100.00;58918.88;5024903;28;20080;-51
2022/06/26 08:28:20;;;;;;;4.70;2.90;;;;;;;-146.19;100.00;58918.88;5027000;28;20121;-48
2022/06/26 08:30:48;;;;;;;4.10;3.10;;;;;;;-146.19;100.00;58918.88;5028969;28;20064;-44
2022/06/26 08:33:17;;;;;;;4.65;3.00;;;;;;;-146.19;100.00;58918.88;5029445;28;20088;-45
2022/06/26 08:35:45;;;;;;;2.78;2.10;;;;;;;-146.19;100.00;58918.88;5026960;28;20543;-53
2022/06/26 08:38:13;;;;;;;3.53;2.13;;;;;;;-146.19;100.00;58918.88;5027969;28;20052;-49
2022/06/26 08:40:43;;;;;;;4.85;2.55;;;;;;;-146.19;100.00;58918.88;5029289;28;20447;-48
2022/06/26 08:43:13;;;;;;;2.70;2.28;;;;;;;-146.19;100.00;58918.88;5024727;28;20225;-48
2022/06/26 08:45:44;;;;;;;1.95;1.73;;;;;;;-146.19;100.00;58918.88;5037506;28;20065;-48
2022/06/26 08:48:13;;;;;;;4.50;2.05;;;;;;;-146.19;100.00;58918.88;5029279;28;20076;-46
2022/06/26 08:50:43;;;;;;;2.80;2.30;;;;;;;-146.19;100.00;58918.88;5029080;28;20072;-49
2022/06/26 08:53:12;;;;;;;2.85;2.20;;;;;;;-146.19;100.00;58918.88;5029711;28;20053;-47
2022/06/26 08:55:40;;;;;;;3.60;2.40;;;;;;;-146.19;100.00;58918.88;5026863;28;20084;-50
2022/06/26 08:58:09;;;;;;;3.70;2.17;;;;;;;-146.19;100.00;58918.88;5033228;28;20065;-48
2022/06/26 09:00:37;;;;;;;3.33;2.00;;;;;;;-146.19;100.00;58918.88;5024877;28;20061;-49
2022/06/26 09:03:07;;;;;;;3.75;1.95;;;;;;;-146.19;100.00;58918.88;5041865;28;20068;-49
2022/06/26 09:05:35;;;;;;;2.25;2.05;;;;;;;-146.19;100.00;58918.88;5036629;28;20073;-48
2022/06/26 09:08:04;;;;;;;4.82;2.13;;;;;;;-146.19;100.00;58918.88;5026431;28;20062;-47
2022/06/26 09:10:37;;;;;;;2.78;1.90;;;;;;;-146.19;100.00;58918.88;5026679;28;20061;-45
2022/06/26 09:13:06;;;;;;;4.90;2.13;;;;;;;-146.19;100.00;58918.88;5028124;28;21349;-48
2022/06/26 09:15:39;;;;;;;2.50;1.90;;;;;;;-146.19;100.00;58918.88;5014512;28;20127;-49
2022/06/26 09:18:11;;;;;;;2.78;1.60;;;;;;;-146.19;100.00;58918.88;5025063;28;20056;-47
2022/06/26 09:20:52;;;;;;;2.38;1.60;;;;;;;-146.19;100.00;58918.88;5023635;28;20076;-46
2022/06/26 09:23:21;;;;;;;1.88;1.58;;;;;;;-146.19;100.00;58918.88;5026543;28;20061;-46
2022/06/26 09:25:57;;;;;;;2.40;1.58;;;;;;;-146.19;100.00;58918.88;5024795;28;20065;-55
2022/06/26 09:28:26;;;;;;;4.37;2.00;;;;;;;-146.19;100.00;58918.88;5019011;28;20073;-56
2022/06/26 09:30:57;;;;;;;2.38;1.60;;;;;;;-146.19;100.00;58918.88;5022614;28;20077;-50
2022/06/26 09:33:28;;;;;;;2.17;1.58;;;;;;;-146.19;100.00;58918.88;5024242;28;20459;-47
2022/06/26 09:35:58;;;;;;;1.63;1.45;;;;;;;-146.19;100.00;58918.88;5022327;28;20525;-49
2022/06/26 09:38:28;;;;;;;1.83;1.60;;;;;;;-146.19;100.00;58918.88;5030873;28;20087;-46
2022/06/26 09:40:58;;;;;;;2.28;1.50;;;;;;;-146.19;100.00;58918.88;5041906;28;20061;-46
2022/06/26 09:43:29;;;;;;;1.50;1.40;;;;;;;-146.19;100.00;58918.88;5024520;28;20081;-50
2022/06/26 09:45:59;;;;;;;3.38;1.50;;;;;;;-146.19;100.00;58918.88;5022178;28;20057;-49
2022/06/26 09:48:29;;;;;;;;;;;;;;;-146.19;100.00;58918.88;5025324;28;20073;-52
2022/06/26 09:50:58;;;;;;;1.50;1.40;;;;;;;-146.19;100.00;58918.88;5032933;28;20196;-50
2022/06/26 09:53:28;;;;;;;2.58;1.60;;;;;;;-146.19;100.00;58918.88;5024796;28;20045;-47
2022/06/26 09:55:58;;;;;;;2.38;1.65;;;;;;;-146.19;100.00;58918.88;5028455;28;20084;-49
2022/06/26 09:58:26;;;;;;;;;;;;;;;-146.19;100.00;58918.88;5024864;28;20080;-51
2022/06/26 10:06:33;;;;;;;2.97;1.50;;;;;;;-146.19;100.00;58918.88;5024423;28;20064;-46
2022/06/26 10:09:05;;;;;;;3.92;1.30;;;;;;;-146.19;100.00;58918.88;5023219;28;20077;-49
2022/06/26 10:11:38;;;;;;;1.98;1.50;;;;;;;-146.19;100.00;58918.88;5028008;28;20080;-47
2022/06/26 10:14:11;;;;;;;2.22;1.30;;;;;;;-146.19;100.00;58918.88;5022356;28;20065;-52
2022/06/26 10:17:01;;;;;;;1.50;1.30;;;;;;;-146.19;100.00;58918.88;5024793;28;20093;-50
2022/06/26 10:19:35;;;;;;;1.55;1.30;;;;;;;-146.19;100.00;58918.88;5022325;28;20085;-54
2022/06/26 10:22:04;;;;;;;2.53;1.20;;;;;;;-146.19;100.00;58918.88;5023793;28;20060;-45
2022/06/26 10:24:33;;;;;;;2.90;1.20;;;;;;;-146.19;100.00;58918.88;5021739;28;20065;-45
2022/06/26 10:27:03;;;;;;;1.35;1.10;;;;;;;-146.19;100.00;58918.88;5023599;28;20507;-45
2022/06/26 10:29:34;;;;;;;1.52;1.20;;;;;;;-146.19;100.00;58918.88;5024729;28;20058;-50
2022/06/26 10:32:02;;;;;;;1.75;1.20;;;;;;;-146.19;100.00;58918.88;5024669;28;20068;-46
2022/06/26 10:34:33;;;;;;;1.42;1.10;;;;;;;-146.19;100.00;58918.88;5021391;28;20072;-47
2022/06/26 10:37:02;;;;;;;;;;;;;;;-146.19;100.00;58918.88;5032224;28;20441;-45
2022/06/26 10:39:45;;;;;;;1.15;1.05;;;;;;;-146.19;100.00;58918.88;5035663;28;19953;-47
2022/06/26 10:45:11;;;;;;;1.52;1.20;;;;;;;-146.19;100.00;58918.88;5042004;28;20072;-50
2022/06/26 10:47:42;;;;;;;1.65;1.38;;;;;;;-146.19;100.00;58918.88;5041756;28;20068;-55
2022/06/26 10:50:34;;;;;;;0.98;0.98;;;;;;;-146.19;100.00;58918.88;5039545;28;20069;-48
2022/06/26 10:53:14;;;;;;;1.20;1.10;;;;;;;-146.19;100.00;58918.88;5042289;28;20079;-45
2022/06/26 10:55:44;;;;;;;1.75;1.17;;;;;;;-146.19;100.00;58918.88;5045493;28;20080;-44
2022/06/26 10:58:19;;;;;;;1.50;1.02;;;;;;;-146.19;100.00;58918.88;5043655;28;20356;-46
2022/06/26 11:00:47;;;;;;;1.60;1.02;;;;;;;-146.19;100.00;58918.88;5045298;28;20076;-51
2022/06/26 11:03:17;;;;;;;1.30;1.13;;;;;;;-146.19;100.00;58918.88;5044170;28;20064;-53
2022/06/26 11:05:58;;;;;;;2.10;1.10;;;;;;;-146.19;100.00;58918.88;5042887;28;20450;-46
2022/06/26 11:08:31;;;;;;;1.90;1.20;;;;;;;-146.19;100.00;58918.88;5042153;28;20068;-49
2022/06/26 11:11:02;;;;;;;1.30;1.00;;;;;;;-146.19;100.00;58918.88;5043497;28;20084;-47
2022/06/26 11:13:30;;;;;;;1.25;1.10;;;;;;;-146.19;100.00;58918.88;5048923;28;20072;-49
2022/06/26 11:15:59;;;;;;;1.75;1.02;;;;;;;-146.19;100.00;58918.88;5042137;28;20456;-48
2022/06/26 11:18:33;;;;;;;1.20;1.10;;;;;;;-146.19;100.00;58918.88;5041983;28;20436;-46
2022/06/26 11:21:03;;;;;;;1.38;1.10;;;;;;;-146.19;100.00;58918.88;5041974;28;20084;-46
2022/06/26 11:23:34;;;;;;;2.75;1.20;;;;;;;-146.19;100.00;58918.88;5044393;28;21447;-48
2022/06/26 11:26:04;;;;;;;1.80;1.10;;;;;;;-146.19;100.00;58918.88;5048684;28;20175;-44
2022/06/26 11:28:34;;;;;;;2.30;1.05;;;;;;;-146.19;100.00;58918.88;5045752;28;20579;-48
2022/06/26 11:31:04;;;;;;;1.63;1.00;;;;;;;-146.19;100.00;58918.88;5044464;28;21362;-46
2022/06/26 11:33:35;;;;;;;1.20;1.10;;;;;;;-146.19;100.00;58918.88;5042420;28;20537;-45
2022/06/26 11:36:07;;;;;;;1.23;1.08;;;;;;;-146.19;100.00;58918.88;5042886;28;20065;-50